createdAt,value
2017-09-11T00:01:44.272Z,4.47
2017-09-11T00:04:12.545Z,4.17
2017-09-11T00:06:40.776Z,4.40
2017-09-11T00:09:09.241Z,4.63
2017-09-11T00:11:37.516Z,3.83
2017-09-11T00:14:05.756Z,4.37
2017-09-11T00:16:33.986Z,4.17
2017-09-11T00:19:02.243Z,3.97
2017-09-11T00:21:30.484Z,3.80
2017-09-11T00:23:58.716Z,3.90
2017-09-11T00:26:27.295Z,4.60
2017-09-11T00:28:55.529Z,4.40
2017-09-11T00:31:23.757Z,4.03
2017-09-11T00:33:52.227Z,4.33
2017-09-11T00:36:20.476Z,4.20
2017-09-11T00:38:49.025Z,4.27
2017-09-11T00:41:17.431Z,3.73
2017-09-11T00:43:45.666Z,4.00
2017-09-11T00:46:13.895Z,3.60
2017-09-11T00:48:42.357Z,4.53
2017-09-11T00:51:10.600Z,4.43
2017-09-11T00:53:38.837Z,4.50
2017-09-11T00:56:07.321Z,4.63
2017-09-11T00:58:35.564Z,4.70
2017-09-11T01:01:03.791Z,4.40
2017-09-11T01:03:32.044Z,3.83
2017-09-11T01:06:00.280Z,4.60
2017-09-11T01:08:28.529Z,3.80
2017-09-11T01:10:56.794Z,4.60
2017-09-11T01:13:25.019Z,4.73
2017-09-11T01:15:53.253Z,4.80
2017-09-11T01:18:21.516Z,4.83
2017-09-11T01:20:50.123Z,3.80
2017-09-11T01:23:18.493Z,4.20
2017-09-11T01:25:46.765Z,4.00
2017-09-11T01:28:15.025Z,4.60
2017-09-11T01:30:43.248Z,3.90
2017-09-11T01:33:12.311Z,4.40
2017-09-11T01:35:40.803Z,3.60
2017-09-11T01:38:09.064Z,4.07
2017-09-11T01:40:37.356Z,3.80
2017-09-11T01:43:05.623Z,3.70
2017-09-11T01:45:33.851Z,3.80
2017-09-11T01:48:02.177Z,3.70
2017-09-11T01:50:30.411Z,3.70
2017-09-11T01:52:58.640Z,3.90
2017-09-11T01:55:26.922Z,3.97
2017-09-11T01:57:55.160Z,4.30
2017-09-11T02:00:23.393Z,3.60
2017-09-11T02:02:51.640Z,3.70
2017-09-11T02:05:19.893Z,3.90
2017-09-11T02:07:48.128Z,3.97
2017-09-11T02:10:16.625Z,3.53
2017-09-11T02:12:44.871Z,4.10
2017-09-11T02:15:13.105Z,4.23
2017-09-11T02:17:41.415Z,4.13
2017-09-11T02:20:09.636Z,3.93
2017-09-11T02:22:37.875Z,3.90
2017-09-11T02:25:06.150Z,4.33
2017-09-11T02:27:34.385Z,4.33
2017-09-11T02:30:02.624Z,3.90
2017-09-11T02:32:31.119Z,4.20
2017-09-11T02:34:59.355Z,4.17
2017-09-11T02:37:27.596Z,3.77
2017-09-11T02:39:56.004Z,4.00
2017-09-11T02:42:24.556Z,3.30
2017-09-11T02:44:52.792Z,4.30
2017-09-11T02:47:21.091Z,4.30
2017-09-11T02:49:49.328Z,3.80
2017-09-11T02:52:17.612Z,3.90
2017-09-11T02:54:45.917Z,3.80
2017-09-11T02:57:14.152Z,4.20
2017-09-11T02:59:42.382Z,3.80
2017-09-11T03:02:10.662Z,3.77
2017-09-11T03:04:38.897Z,3.77
2017-09-11T03:07:07.132Z,3.70
2017-09-11T03:09:35.396Z,4.20
2017-09-11T03:12:03.654Z,3.60
2017-09-11T03:14:32.148Z,4.13
2017-09-11T03:17:00.790Z,3.50
2017-09-11T03:19:29.024Z,4.00
2017-09-11T03:21:57.481Z,3.80
2017-09-11T03:24:25.963Z,3.90
2017-09-11T03:26:54.229Z,3.83
2017-09-11T03:29:22.459Z,3.93
2017-09-11T03:31:51.016Z,3.63
2017-09-11T03:34:19.252Z,4.23
2017-09-11T03:36:47.489Z,3.87
2017-09-11T03:39:15.737Z,4.03
2017-09-11T03:41:44.072Z,3.90
2017-09-11T03:44:12.489Z,3.50
2017-09-11T03:46:40.753Z,4.13
2017-09-11T03:49:08.981Z,4.07
2017-09-11T03:51:37.274Z,3.77
2017-09-11T03:54:05.506Z,3.57
2017-09-11T03:56:34.144Z,3.67
2017-09-11T03:59:02.656Z,4.23
2017-09-11T04:01:30.887Z,4.10
2017-09-11T04:03:59.133Z,3.77
2017-09-11T04:06:27.420Z,3.83
2017-09-11T04:08:55.657Z,3.60
2017-09-11T04:11:23.909Z,3.03
2017-09-11T04:13:52.224Z,3.47
2017-09-11T04:16:20.847Z,3.30
2017-09-11T04:18:49.083Z,3.60
2017-09-11T04:21:17.369Z,3.27
2017-09-11T04:23:45.606Z,3.67
2017-09-11T04:26:13.865Z,4.07
2017-09-11T04:28:42.138Z,3.10
2017-09-11T04:31:10.377Z,4.03
2017-09-11T04:33:38.633Z,3.40
2017-09-11T04:36:06.869Z,3.37
2017-09-11T04:38:35.116Z,3.33
2017-09-11T04:41:03.716Z,3.33
2017-09-11T04:43:31.953Z,2.87
2017-09-11T04:46:00.215Z,3.80
2017-09-11T04:48:28.494Z,3.73
2017-09-11T04:50:56.729Z,3.10
2017-09-11T04:53:24.981Z,3.10
2017-09-11T04:55:53.243Z,3.73
2017-09-11T04:58:21.708Z,3.30
2017-09-11T05:00:49.949Z,3.40
2017-09-11T05:03:18.241Z,3.60
2017-09-11T05:05:46.478Z,3.43
2017-09-11T05:08:15.014Z,3.43
2017-09-11T05:10:43.668Z,3.87
2017-09-11T05:13:11.900Z,3.43
2017-09-11T05:15:40.312Z,3.30
2017-09-11T05:18:09.116Z,3.30
2017-09-11T05:20:37.582Z,3.37
2017-09-11T05:23:06.151Z,3.83
2017-09-11T05:25:34.385Z,3.20
2017-09-11T05:28:02.639Z,3.33
2017-09-11T05:30:30.955Z,3.03
2017-09-11T05:32:59.189Z,3.20
2017-09-11T05:35:27.529Z,2.70
2017-09-11T05:37:55.949Z,3.20
2017-09-11T05:40:24.176Z,3.43
2017-09-11T05:42:52.417Z,3.30
2017-09-11T05:45:20.845Z,4.00
2017-09-11T05:47:49.076Z,4.00
2017-09-11T05:50:17.321Z,4.30
2017-09-11T05:52:45.764Z,4.00
2017-09-11T05:55:14.000Z,4.00
2017-09-11T05:57:42.239Z,3.90
2017-09-11T06:00:10.492Z,3.80
2017-09-11T06:02:38.760Z,2.90
2017-09-11T06:05:07.046Z,4.37
2017-09-11T06:07:35.289Z,3.50
2017-09-11T06:10:03.744Z,3.70
2017-09-11T06:12:32.053Z,3.53
2017-09-11T06:15:00.304Z,3.47
2017-09-11T06:17:28.777Z,3.43
2017-09-11T06:19:57.036Z,3.57
2017-09-11T06:22:25.291Z,3.30
2017-09-11T06:24:53.560Z,3.13
2017-09-11T06:27:21.816Z,2.90
2017-09-11T06:29:50.093Z,2.97
2017-09-11T06:32:18.372Z,2.80
2017-09-11T06:34:46.612Z,2.50
2017-09-11T06:37:14.845Z,2.70
2017-09-11T06:39:43.129Z,2.70
2017-09-11T06:42:11.758Z,2.60
2017-09-11T06:44:40.146Z,2.77
2017-09-11T06:47:08.642Z,2.70
2017-09-11T06:49:36.885Z,2.33
2017-09-11T06:52:05.139Z,2.53
2017-09-11T06:54:33.404Z,2.60
2017-09-11T06:57:01.654Z,2.27
2017-09-11T06:59:30.794Z,2.37
2017-09-11T07:01:59.051Z,2.40
2017-09-11T07:04:27.508Z,2.70
2017-09-11T07:06:56.064Z,2.77
2017-09-11T07:09:24.341Z,2.60
2017-09-11T07:12:04.680Z,2.33
2017-09-11T07:14:32.913Z,2.83
2017-09-11T07:17:01.154Z,2.17
2017-09-11T07:19:29.593Z,2.70
2017-09-11T07:21:57.846Z,2.10
2017-09-11T07:24:26.092Z,2.10
2017-09-11T07:26:54.384Z,2.53
2017-09-11T07:29:22.828Z,2.90
2017-09-11T07:31:51.460Z,2.60
2017-09-11T07:34:19.740Z,3.10
2017-09-11T07:36:47.988Z,2.50
2017-09-11T07:39:16.227Z,2.37
2017-09-11T07:41:44.672Z,2.73
2017-09-11T07:44:12.903Z,2.83
2017-09-11T07:46:41.248Z,2.43
2017-09-11T07:49:09.501Z,2.50
2017-09-11T07:51:37.775Z,2.57
2017-09-11T07:54:06.028Z,2.43
2017-09-11T07:56:34.303Z,2.53
2017-09-11T07:59:02.584Z,2.50
2017-09-11T08:01:30.837Z,2.50
2017-09-11T08:03:59.644Z,2.50
2017-09-11T08:06:27.910Z,2.30
2017-09-11T08:08:56.182Z,2.20
2017-09-11T08:11:24.441Z,2.30
2017-09-11T08:13:52.720Z,2.40
2017-09-11T08:16:20.984Z,2.90
2017-09-11T08:18:49.262Z,2.60
2017-09-11T08:21:17.484Z,2.00
2017-09-11T08:23:45.974Z,2.20
2017-09-11T08:26:14.417Z,2.00
2017-09-11T08:28:42.745Z,1.90
2017-09-11T08:31:11.014Z,2.03
2017-09-11T08:33:39.265Z,1.97
2017-09-11T08:36:07.512Z,1.50
2017-09-11T08:38:35.979Z,2.10
2017-09-11T08:41:04.614Z,1.90
2017-09-11T08:43:32.872Z,1.83
2017-09-11T08:46:01.114Z,2.20
2017-09-11T08:48:29.531Z,1.90
2017-09-11T08:50:57.772Z,1.77
2017-09-11T08:53:27.178Z,1.80
2017-09-11T08:55:55.428Z,1.70
2017-09-11T08:58:23.940Z,2.20
2017-09-11T09:00:52.190Z,1.97
2017-09-11T09:03:20.454Z,1.93
2017-09-11T09:05:48.701Z,1.77
2017-09-11T09:08:16.949Z,1.80
2017-09-11T09:10:48.525Z,2.03
2017-09-11T09:13:16.956Z,1.87
2017-09-11T09:15:46.588Z,1.93
2017-09-11T09:18:23.216Z,1.80
2017-09-11T09:20:51.944Z,1.80
2017-09-11T09:23:23.396Z,1.80
2017-09-11T09:25:52.517Z,2.00
2017-09-11T09:28:20.754Z,1.70
2017-09-11T09:30:49.008Z,1.80
2017-09-11T09:33:17.248Z,2.07
2017-09-11T09:35:45.493Z,1.90
2017-09-11T09:38:14.165Z,2.00
2017-09-11T09:40:45.426Z,1.80
2017-09-11T09:43:14.010Z,1.83
2017-09-11T09:45:42.254Z,1.80
2017-09-11T09:48:10.507Z,1.83
2017-09-11T09:50:38.759Z,1.70
2017-09-11T09:53:07.020Z,1.40
2017-09-11T09:55:35.481Z,1.97
2017-09-11T09:58:03.773Z,1.80
2017-09-11T10:00:32.402Z,1.87
2017-09-11T10:03:00.657Z,1.50
2017-09-11T10:05:28.916Z,1.67
2017-09-11T10:07:57.551Z,1.73
2017-09-11T10:10:25.824Z,1.70
2017-09-11T10:12:54.068Z,1.60
2017-09-11T10:15:22.315Z,1.50
2017-09-11T10:17:50.593Z,1.90
2017-09-11T10:20:19.335Z,2.07
2017-09-11T10:22:47.605Z,1.60
2017-09-11T10:25:16.044Z,1.83
2017-09-11T10:27:44.333Z,1.50
2017-09-11T10:30:12.624Z,2.17
2017-09-11T10:32:41.123Z,2.30
2017-09-11T10:35:09.420Z,1.70
2017-09-11T10:37:37.687Z,1.30
2017-09-11T10:40:06.332Z,1.63
2017-09-11T10:42:34.650Z,1.50
2017-09-11T10:45:02.905Z,1.40
2017-09-11T10:47:31.309Z,1.60
2017-09-11T10:49:59.577Z,1.43
2017-09-11T10:52:27.848Z,2.50
2017-09-11T10:54:56.366Z,1.50
2017-09-11T10:57:25.026Z,1.30
2017-09-11T10:59:53.269Z,1.40
2017-09-11T11:02:21.550Z,1.40
2017-09-11T11:04:49.957Z,1.50
2017-09-11T11:07:18.370Z,1.30
2017-09-11T11:09:47.026Z,1.50
2017-09-11T11:12:15.301Z,1.60
2017-09-11T11:14:43.556Z,1.70
2017-09-11T11:17:11.800Z,1.43
2017-09-11T11:19:40.100Z,1.43
2017-09-11T11:22:08.394Z,1.53
2017-09-11T11:24:36.640Z,1.73
2017-09-11T11:27:04.921Z,1.80
2017-09-11T11:29:33.516Z,1.40
2017-09-11T11:32:01.773Z,1.57
2017-09-11T11:34:30.021Z,1.27
2017-09-11T11:36:58.669Z,1.30
2017-09-11T11:39:27.195Z,1.67
2017-09-11T11:41:55.452Z,1.50
2017-09-11T11:44:23.688Z,1.40
2017-09-11T11:46:52.446Z,1.37
2017-09-11T11:49:20.729Z,1.50
2017-09-11T11:51:48.976Z,1.70
2017-09-11T11:54:17.386Z,1.47
2017-09-11T11:56:45.698Z,1.40
2017-09-11T11:59:14.054Z,1.20
2017-09-11T12:01:42.320Z,1.50
2017-09-11T12:04:10.574Z,1.20
2017-09-11T12:06:38.831Z,1.50
2017-09-11T12:09:07.228Z,1.50
2017-09-11T12:11:35.513Z,1.70
2017-09-11T12:14:04.021Z,1.20
2017-09-11T12:16:32.315Z,1.60
2017-09-11T12:19:00.590Z,1.50
2017-09-11T12:21:28.865Z,1.50
2017-09-11T12:23:57.118Z,1.20
2017-09-11T12:26:25.349Z,1.57
2017-09-11T12:28:54.393Z,1.30
2017-09-11T12:31:23.525Z,1.47
2017-09-11T12:33:51.771Z,1.27
2017-09-11T12:36:20.089Z,1.57
2017-09-11T12:38:48.329Z,1.50
2017-09-11T12:41:16.575Z,1.47
2017-09-11T12:43:44.847Z,1.30
2017-09-11T12:46:13.102Z,1.50
2017-09-11T12:48:41.347Z,1.70
2017-09-11T12:51:09.808Z,1.20
2017-09-11T12:53:38.103Z,1.50
2017-09-11T12:56:06.475Z,1.80
2017-09-11T12:58:34.748Z,1.40
2017-09-11T13:01:03.022Z,1.53
2017-09-11T13:03:31.277Z,1.60
2017-09-11T13:06:32.387Z,1.60
2017-09-11T13:09:00.669Z,1.50
2017-09-11T13:11:28.918Z,1.60
2017-09-11T13:13:57.610Z,1.40
2017-09-11T13:16:25.849Z,1.20
2017-09-11T13:18:54.115Z,1.30
2017-09-11T13:21:22.390Z,1.30
2017-09-11T13:23:50.642Z,1.40
2017-09-11T13:26:19.380Z,1.40
2017-09-11T13:28:47.685Z,1.80
2017-09-11T13:31:16.337Z,1.40
2017-09-11T13:33:44.616Z,1.40
2017-09-11T13:36:12.923Z,1.37
2017-09-11T13:38:41.177Z,1.30
2017-09-11T13:41:09.438Z,1.20
2017-09-11T13:43:37.732Z,1.57
2017-09-11T13:46:06.021Z,1.20
2017-09-11T13:48:34.282Z,1.30
2017-09-11T13:51:02.590Z,1.00
2017-09-11T13:53:30.899Z,1.43
2017-09-11T13:55:59.292Z,1.20
2017-09-11T13:58:27.588Z,1.20
2017-09-11T14:00:55.846Z,1.20
2017-09-11T14:03:24.289Z,1.27
2017-09-11T14:05:52.928Z,1.30
2017-09-11T14:08:21.706Z,1.20
2017-09-11T14:10:49.992Z,1.20
2017-09-11T14:13:18.253Z,1.30
2017-09-11T14:15:46.556Z,1.30
2017-09-11T14:18:15.536Z,1.40
2017-09-11T14:20:43.959Z,1.20
2017-09-11T14:23:12.607Z,1.30
2017-09-11T14:25:40.965Z,1.40
2017-09-11T14:28:09.226Z,1.60
2017-09-11T14:30:37.515Z,1.47
2017-09-11T14:33:05.906Z,1.40
2017-09-11T14:35:34.288Z,1.33
2017-09-11T14:38:02.805Z,1.30
2017-09-11T14:40:31.251Z,1.30
2017-09-11T14:42:59.519Z,1.60
2017-09-11T14:45:27.776Z,1.40
2017-09-11T14:47:56.274Z,1.77
2017-09-11T14:50:24.612Z,1.77
2017-09-11T14:52:52.865Z,1.70
2017-09-11T14:55:21.170Z,1.50
2017-09-11T14:57:49.661Z,1.40
2017-09-11T15:00:17.972Z,1.50
2017-09-11T15:02:46.457Z,1.63
2017-09-11T15:05:14.820Z,1.70
2017-09-11T15:07:43.070Z,1.43
2017-09-11T15:10:11.371Z,1.70
2017-09-11T15:12:39.827Z,1.70
2017-09-11T15:15:08.073Z,1.60
2017-09-11T15:17:36.407Z,1.70
2017-09-11T15:20:04.632Z,1.43
2017-09-11T15:22:32.891Z,1.60
2017-09-11T15:25:01.594Z,1.33
2017-09-11T15:27:30.431Z,1.53
2017-09-11T15:29:58.655Z,1.43
2017-09-11T15:32:26.953Z,1.70
2017-09-11T15:34:55.201Z,1.60
2017-09-11T15:37:23.446Z,1.80
2017-09-11T15:39:51.719Z,1.63
2017-09-11T15:42:20.193Z,1.27
2017-09-11T15:44:49.075Z,1.63
2017-09-11T15:47:17.364Z,1.83
2017-09-11T15:49:45.616Z,1.60
2017-09-11T15:52:13.859Z,1.30
2017-09-11T15:54:42.542Z,1.70
2017-09-11T15:57:11.194Z,1.50
2017-09-11T15:59:39.457Z,1.67
2017-09-11T16:02:07.834Z,1.60
2017-09-11T16:04:36.069Z,1.40
2017-09-11T16:07:04.316Z,1.63
2017-09-11T16:09:33.144Z,1.47
2017-09-11T16:12:01.628Z,1.73
2017-09-11T16:14:29.873Z,1.43
2017-09-11T16:16:58.317Z,1.40
2017-09-11T16:19:26.573Z,1.30
2017-09-11T16:21:54.968Z,1.67
2017-09-11T16:24:23.237Z,1.50
2017-09-11T16:26:51.495Z,1.60
2017-09-11T16:29:19.770Z,1.30
2017-09-11T16:31:48.037Z,1.90
2017-09-11T16:34:16.291Z,1.33
2017-09-11T16:36:44.637Z,1.80
2017-09-11T16:39:13.122Z,1.83
2017-09-11T16:41:41.358Z,1.40
2017-09-11T16:44:09.603Z,2.20
2017-09-11T16:46:37.901Z,1.63
2017-09-11T16:49:06.149Z,1.40
2017-09-11T16:51:34.440Z,1.80
2017-09-11T16:54:02.749Z,1.70
2017-09-11T16:56:31.039Z,1.57
2017-09-11T16:58:59.290Z,2.03
2017-09-11T17:01:27.597Z,1.57
2017-09-11T17:03:55.835Z,1.87
2017-09-11T17:06:24.065Z,1.43
2017-09-11T17:08:52.317Z,1.53
2017-09-11T17:11:20.555Z,1.70
2017-09-11T17:13:49.124Z,1.90
2017-09-11T17:16:17.387Z,1.53
2017-09-11T17:18:46.057Z,1.40
2017-09-11T17:21:14.324Z,1.80
2017-09-11T17:23:43.016Z,1.73
2017-09-11T17:26:11.756Z,1.70
2017-09-11T17:28:40.221Z,1.67
2017-09-11T17:31:08.487Z,1.53
2017-09-11T17:33:36.728Z,1.97
2017-09-11T17:36:05.665Z,1.60
2017-09-11T17:38:34.583Z,1.50
2017-09-11T17:41:02.896Z,1.70
2017-09-11T17:43:31.573Z,1.60
2017-09-11T17:45:59.812Z,1.80
2017-09-11T17:48:28.319Z,1.63
2017-09-11T17:50:56.579Z,1.90
2017-09-11T17:53:25.080Z,1.80
2017-09-11T17:55:53.601Z,1.70
2017-09-11T17:58:22.225Z,1.60
2017-09-11T18:00:50.604Z,2.90
2017-09-11T18:03:19.311Z,1.80
2017-09-11T18:05:47.611Z,1.87
2017-09-11T18:08:16.307Z,1.50
2017-09-11T18:10:44.969Z,1.93
2017-09-11T18:13:13.245Z,1.80
2017-09-11T18:15:41.493Z,1.73
2017-09-11T18:18:09.763Z,1.67
2017-09-11T18:20:38.073Z,1.60
2017-09-11T18:23:06.736Z,1.70
2017-09-11T18:25:35.080Z,1.80
2017-09-11T18:28:03.624Z,1.57
2017-09-11T18:30:32.340Z,1.80
2017-09-11T18:33:00.568Z,1.80
2017-09-11T18:35:28.833Z,2.07
2017-09-11T18:37:57.100Z,2.07
2017-09-11T18:40:25.530Z,2.07
2017-09-11T18:42:53.804Z,1.90
2017-09-11T18:45:22.431Z,1.97
2017-09-11T18:47:50.915Z,1.97
2017-09-11T18:50:19.378Z,1.93
2017-09-11T18:52:47.843Z,2.53
2017-09-11T18:55:16.115Z,2.40
2017-09-11T18:57:44.804Z,2.60
2017-09-11T19:00:13.452Z,1.90
2017-09-11T19:02:42.288Z,1.70
2017-09-11T19:05:10.550Z,2.23
2017-09-11T19:07:39.181Z,2.10
2017-09-11T19:10:07.636Z,2.00
2017-09-11T19:12:36.143Z,1.80
2017-09-11T19:15:04.848Z,2.20
2017-09-11T19:17:33.124Z,1.70
2017-09-11T19:20:01.388Z,2.07
2017-09-11T19:22:29.645Z,2.00
2017-09-11T19:24:57.992Z,2.03
2017-09-11T19:27:26.284Z,1.77
2017-09-11T19:29:54.556Z,2.23
2017-09-11T19:32:22.853Z,2.40
2017-09-11T19:34:51.366Z,2.10
2017-09-11T19:37:19.601Z,2.10
2017-09-11T19:39:47.897Z,2.00
2017-09-11T19:42:16.408Z,1.70
2017-09-11T19:44:44.676Z,4.20
2017-09-11T19:47:12.952Z,2.00
2017-09-11T19:49:41.240Z,2.37
2017-09-11T19:52:09.908Z,1.80
2017-09-11T19:54:38.201Z,1.63
2017-09-11T19:57:06.670Z,2.00
2017-09-11T19:59:34.922Z,1.80
2017-09-11T20:02:03.212Z,1.87
2017-09-11T20:04:31.508Z,1.50
2017-09-11T20:06:59.879Z,1.50
2017-09-11T20:09:28.136Z,1.97
2017-09-11T20:11:56.414Z,2.03
2017-09-11T20:14:25.184Z,1.60
2017-09-11T20:16:53.664Z,1.60
2017-09-11T20:19:21.930Z,1.90
2017-09-11T20:21:50.189Z,1.60
2017-09-11T20:24:19.212Z,2.23
2017-09-11T20:26:47.487Z,1.40
2017-09-11T20:29:15.731Z,1.70
2017-09-11T20:31:44.362Z,1.40
2017-09-11T20:34:13.140Z,1.60
2017-09-11T20:36:41.392Z,1.63
2017-09-11T20:39:09.658Z,1.30
2017-09-11T20:41:38.985Z,1.80
2017-09-11T20:44:07.232Z,1.43
2017-09-11T20:46:35.847Z,1.50
2017-09-11T20:49:04.856Z,1.50
2017-09-11T20:51:33.112Z,1.60
2017-09-11T20:54:01.439Z,1.50
2017-09-11T20:56:30.197Z,1.80
2017-09-11T20:58:58.465Z,1.80
2017-09-11T21:01:27.641Z,2.00
2017-09-11T21:03:56.481Z,1.90
2017-09-11T21:06:25.149Z,1.90
2017-09-11T21:08:53.413Z,1.80
2017-09-11T21:11:21.695Z,2.10
2017-09-11T21:13:49.929Z,2.00
2017-09-11T21:16:18.177Z,1.70
2017-09-11T21:18:47.166Z,1.73
2017-09-11T21:21:15.396Z,1.87
2017-09-11T21:23:43.820Z,1.63
2017-09-11T21:26:12.055Z,2.00
2017-09-11T21:28:40.350Z,2.00
2017-09-11T21:31:09.000Z,1.70
2017-09-11T21:33:37.248Z,1.80
2017-09-11T21:36:05.884Z,1.70
2017-09-11T21:38:35.402Z,1.80
2017-09-11T21:41:03.670Z,2.00
2017-09-11T21:43:31.905Z,2.00
2017-09-11T21:46:00.933Z,1.43
2017-09-11T21:48:29.192Z,1.57
2017-09-11T21:50:57.468Z,1.53
2017-09-11T21:53:26.332Z,1.63
2017-09-11T21:55:54.603Z,1.63
2017-09-11T21:58:22.928Z,1.70
2017-09-11T22:00:51.200Z,1.70
2017-09-11T22:03:19.489Z,1.57
2017-09-11T22:05:48.511Z,1.70
2017-09-11T22:08:16.939Z,1.67
2017-09-11T22:10:45.196Z,1.60
2017-09-11T22:13:13.531Z,1.70
2017-09-11T22:15:41.823Z,1.80
2017-09-11T22:18:11.077Z,1.70
2017-09-11T22:20:39.343Z,1.50
2017-09-11T22:23:07.608Z,1.63
2017-09-11T22:25:36.825Z,1.73
2017-09-11T22:28:05.075Z,1.67
2017-09-11T22:30:33.320Z,1.80
2017-09-11T22:33:03.048Z,1.77
2017-09-11T22:35:31.356Z,1.40
2017-09-11T22:37:59.625Z,1.50
2017-09-11T22:40:29.459Z,1.73
2017-09-11T22:42:57.715Z,1.53
2017-09-11T22:45:26.090Z,1.60
2017-09-11T22:47:54.725Z,1.57
2017-09-11T22:50:23.046Z,1.70
2017-09-11T22:52:51.303Z,1.63
2017-09-11T22:55:21.987Z,1.87
2017-09-11T22:57:50.606Z,1.50
2017-09-11T23:00:19.256Z,1.80
2017-09-11T23:02:47.696Z,1.63
2017-09-11T23:05:16.004Z,1.63
2017-09-11T23:07:44.279Z,1.60
2017-09-11T23:10:12.545Z,1.63
2017-09-11T23:12:40.840Z,1.83
2017-09-11T23:15:09.120Z,1.37
2017-09-11T23:17:37.748Z,1.60
2017-09-11T23:20:06.010Z,2.00
2017-09-11T23:22:34.679Z,1.60
2017-09-11T23:25:03.169Z,1.70
2017-09-11T23:27:31.400Z,1.50
2017-09-11T23:29:59.919Z,1.53
2017-09-11T23:32:28.692Z,1.60
2017-09-11T23:34:56.935Z,1.60
2017-09-11T23:37:25.216Z,1.30
2017-09-11T23:39:53.510Z,1.87
2017-09-11T23:42:21.757Z,1.50
2017-09-11T23:44:50.022Z,1.20
2017-09-11T23:47:18.340Z,1.40
2017-09-11T23:49:46.606Z,1.63
2017-09-11T23:52:14.860Z,1.40
2017-09-11T23:54:43.243Z,1.40
2017-09-11T23:57:11.507Z,1.57
2017-09-11T23:59:39.773Z,1.40
